Accueil
METAR-TAF:

METAR-TAF

Aéroports :

Afonsos

Rio de Janeiro, Rio de Janeiro, Brésil

latitude: 22-52S, longitude: 043-22W, altitude: 34 m

Observation

Le bulletin a été fait il y a 48 minutes, à 15:00 UTC
Vent 2 kt de nord
Température 25°C
Humidité 69%
Pression 1017 hPa
Visibilité 10 km ou plus
Nuages fragmentés à une hauteur de 2000 ft
Nuages fragmentés à une hauteur de 4000 ft

METAR: SBAF 081500Z 35002KT 9999 BKN020 BKN040 25/19 Q1017

Heure: 12:48 (15:48 UTC)

Prévision

Le bulletin a été fait il y a 6 heures et 48 minutes, à 09:00 UTC
Prévision valable du 08 à 12 UTC au 08 à 24 UTC
Vent 9 kt de nord/nord-ouest
Visibilité: 7000 m
Nuages fragmentés à une hauteur de 1500 ft
Evoluant progressivement
du 08 à 13 UTC au 08 à 15 UTC
Nuages épars à une hauteur de 2000 ft

TAF: SBAF 080900Z 0812/0824 33009KT 7000 BKN015 TX31/0817Z TN25/0823Z BECMG 0813/0815 SCT020 RMK PEI

Observations et prévisions météorologiques de plus de 4000 aéroports (messages METAR et TAF).

Les stations disponibles sont représentées par des disques jaunes et rouges sur la carte.

Passer la souris dessus pour voir le nom de la station.

Cliquer dessus pour voir les observations et prévisions météorologiques.

Pour changer de carte: cliquez sur les boutons verts avec une croix noire pour zoomer, sur le bouton vert avec un tiret pour effectuer un zoom arrière, ou sur les flèches vertes pour les cartes adjacentes.


METAR-TAF: